Time;durP1;ratioP1;P1;durP2;ratioP2;P2;SDS_P1;SDS_P2;PMS_P1;PMS_P2;Temp;Humidity;BMP_temperature;BMP_pressure;BME280_temperature;BME280_humidity;BME280_pressure;Samples;Min_cycle;Max_cycle;Signal;HPM_P1;HPM_P2
2023/12/31 00:01:33;;;;;;;3.23;2.47;;;;;;;7.97;100.00;100259.50;5284965;28;20039;-77
2023/12/31 00:04:05;;;;;;;3.88;1.25;;;;;;;8.03;100.00;100253.38;5286815;28;20032;-76
2023/12/31 00:06:36;;;;;;;3.23;1.33;;;;;;;8.01;100.00;100245.59;5286929;28;20028;-77
2023/12/31 00:09:07;;;;;;;2.97;1.40;;;;;;;8.10;100.00;100252.44;5286402;28;20108;-77
2023/12/31 00:11:39;;;;;;;5.10;1.17;;;;;;;8.18;100.00;100223.81;5285646;28;20119;-77
2023/12/31 00:14:10;;;;;;;2.47;1.27;;;;;;;8.12;100.00;100221.28;5285891;28;20429;-76
2023/12/31 00:16:41;;;;;;;1.93;1.27;;;;;;;8.10;100.00;100226.47;5286244;28;20452;-77
2023/12/31 00:19:13;;;;;;;3.73;1.43;;;;;;;8.09;100.00;100216.97;5286941;28;20067;-77
2023/12/31 00:21:44;;;;;;;2.50;1.73;;;;;;;8.03;100.00;100206.66;5286405;28;20029;-76
2023/12/31 00:24:16;;;;;;;3.03;1.50;;;;;;;8.05;100.00;100204.91;5286696;28;20029;-76
2023/12/31 00:26:47;;;;;;;2.73;1.40;;;;;;;8.01;100.00;100191.09;5286527;28;20128;-76
2023/12/31 00:29:18;;;;;;;3.57;1.37;;;;;;;8.00;100.00;100188.50;5286182;28;20029;-76
2023/12/31 00:31:50;;;;;;;3.30;1.77;;;;;;;8.09;100.00;100188.41;5286068;28;20033;-77
2023/12/31 00:34:21;;;;;;;2.70;1.40;;;;;;;8.17;100.00;100180.53;5285771;28;20032;-77
2023/12/31 00:36:52;;;;;;;3.17;1.50;;;;;;;8.10;100.00;100186.66;5285702;28;20032;-77
2023/12/31 00:39:24;;;;;;;3.83;1.90;;;;;;;8.12;100.00;100174.53;5285929;28;20090;-77
2023/12/31 00:41:55;;;;;;;2.67;1.43;;;;;;;8.14;100.00;100162.41;5283810;28;20143;-76
2023/12/31 00:44:27;;;;;;;5.13;1.20;;;;;;;8.11;100.00;100152.06;5286112;28;20032;-76
2023/12/31 00:46:58;;;;;;;2.10;1.47;;;;;;;8.12;100.00;100157.22;5286199;28;20468;-77
2023/12/31 00:49:30;;;;;;;3.30;1.40;;;;;;;8.11;100.00;100149.44;5286084;28;20037;-77
2023/12/31 00:52:01;;;;;;;2.77;1.23;;;;;;;8.11;100.00;100152.06;5285617;28;20571;-76
2023/12/31 00:54:33;;;;;;;3.60;1.50;;;;;;;8.15;100.00;100143.34;5286228;28;20049;-76
2023/12/31 00:57:05;;;;;;;2.23;1.33;;;;;;;8.14;100.00;100142.47;5286124;28;20031;-76
2023/12/31 00:59:36;;;;;;;2.45;1.02;;;;;;;8.14;100.00;100144.22;5286116;28;20055;-76
2023/12/31 01:02:07;;;;;;;5.43;1.30;;;;;;;8.10;100.00;100147.72;5285279;28;20041;-76
2023/12/31 01:04:39;;;;;;;2.57;1.70;;;;;;;8.08;100.00;100144.28;5285680;28;20020;-77
2023/12/31 01:07:10;;;;;;;4.40;1.60;;;;;;;8.10;100.00;100129.56;5286076;28;20032;-76
2023/12/31 01:09:42;;;;;;;2.27;1.40;;;;;;;8.12;100.00;100125.22;5285407;28;20056;-77
2023/12/31 01:12:13;;;;;;;3.57;1.53;;;;;;;8.12;100.00;100126.06;5285735;28;20464;-77
2023/12/31 01:14:45;;;;;;;3.63;1.50;;;;;;;8.07;100.00;100111.44;5285780;28;20032;-77
2023/12/31 01:17:16;;;;;;;3.77;1.50;;;;;;;8.02;100.00;100114.09;5285523;28;20059;-77
2023/12/31 01:19:48;;;;;;;1.73;1.37;;;;;;;8.01;100.00;100102.84;5285706;28;20028;-76
2023/12/31 01:22:19;;;;;;;5.53;1.53;;;;;;;7.94;100.00;100101.22;5286108;28;20047;-77
2023/12/31 01:24:50;;;;;;;1.93;1.43;;;;;;;7.94;100.00;100101.22;5284892;28;20055;-77
2023/12/31 01:27:22;;;;;;;2.70;1.30;;;;;;;7.93;100.00;100085.66;5286531;28;20040;-77
2023/12/31 01:29:53;;;;;;;2.83;1.50;;;;;;;7.94;100.00;100083.06;5287168;28;20096;-77
2023/12/31 01:32:24;;;;;;;2.37;1.07;;;;;;;8.03;100.00;100082.94;5286993;28;20054;-77
2023/12/31 01:35:00;;;;;;;4.03;1.33;;;;;;;7.99;100.00;100085.59;5286625;28;20387;-78
2023/12/31 01:37:31;;;;;;;2.88;1.13;;;;;;;8.02;100.00;100083.81;5286140;28;20526;-77
2023/12/31 01:40:03;;;;;;;2.57;1.40;;;;;;;8.01;100.00;100071.69;5286343;28;20028;-76
2023/12/31 01:42:35;;;;;;;2.50;1.27;;;;;;;8.00;100.00;100069.13;5285847;28;20216;-78
2023/12/31 01:45:06;;;;;;;3.63;1.83;;;;;;;8.04;100.00;100069.06;5284944;28;20048;-77
2023/12/31 01:47:38;;;;;;;3.20;1.30;;;;;;;7.97;100.00;100058.78;5285966;28;20036;-77
2023/12/31 01:50:12;;;;;;;2.77;1.23;;;;;;;7.95;100.00;100058.81;5287469;28;20039;-77
2023/12/31 01:52:44;;;;;;;3.42;2.13;;;;;;;7.94;100.00;100056.25;5288458;28;20078;-77
2023/12/31 01:55:16;;;;;;;2.83;1.30;;;;;;;7.98;100.00;100055.31;5296991;28;20028;-77
2023/12/31 01:57:48;;;;;;;2.47;1.40;;;;;;;8.01;100.00;100039.69;5301426;28;20032;-77
2023/12/31 02:00:19;;;;;;;3.43;1.40;;;;;;;8.00;100.00;100031.06;5291938;28;20040;-77
2023/12/31 02:02:54;;;;;;;4.37;1.67;;;;;;;7.98;100.00;100034.56;5286359;28;20114;-77
2023/12/31 02:05:26;;;;;;;3.28;1.52;;;;;;;7.94;100.00;100023.38;5286724;28;20021;-76
2023/12/31 02:07:57;;;;;;;2.50;1.50;;;;;;;7.95;100.00;100037.19;5287618;28;20051;-81
2023/12/31 02:10:28;;;;;;;2.90;1.70;;;;;;;7.97;100.00;100030.22;5287999;28;20424;-77
2023/12/31 02:13:01;;;;;;;1.40;1.10;;;;;;;8.03;100.00;100022.34;5288057;28;20090;-78
2023/12/31 02:15:34;;;;;;;2.80;1.58;;;;;;;7.99;100.00;100007.72;5290369;28;20032;-77
2023/12/31 02:18:05;;;;;;;2.88;1.50;;;;;;;8.00;100.00;100010.31;5298778;28;20044;-77
2023/12/31 02:20:36;;;;;;;2.63;1.33;;;;;;;8.01;100.00;100001.63;5303355;28;20089;-77
2023/12/31 02:23:08;;;;;;;2.57;1.30;;;;;;;7.99;100.00;99997.34;5305232;28;20020;-77
2023/12/31 02:25:41;;;;;;;1.87;1.30;;;;;;;8.01;100.00;99996.44;5303564;28;20077;-77
2023/12/31 02:28:14;;;;;;;2.72;1.42;;;;;;;8.01;100.00;99993.84;5297300;28;20100;-77
2023/12/31 02:30:45;;;;;;;1.65;1.35;;;;;;;8.02;100.00;99968.75;5302378;28;20024;-77
2023/12/31 02:33:16;;;;;;;2.80;1.50;;;;;;;8.00;100.00;99963.59;5305630;28;20059;-76
2023/12/31 02:35:48;;;;;;;2.43;1.33;;;;;;;7.96;100.00;99967.09;5305904;28;20095;-76
2023/12/31 02:38:19;;;;;;;3.20;1.27;;;;;;;7.98;100.00;99952.34;5304306;28;20107;-77
2023/12/31 02:40:50;;;;;;;2.33;1.13;;;;;;;7.96;100.00;99948.94;5301729;28;20037;-77
2023/12/31 02:43:22;;;;;;;2.73;1.43;;;;;;;7.96;100.00;99946.34;5303777;28;20040;-75
2023/12/31 02:45:53;;;;;;;2.13;1.50;;;;;;;7.92;100.00;99952.47;5305158;28;20027;-75
2023/12/31 02:48:24;;;;;;;4.13;1.50;;;;;;;8.02;100.00;99938.47;5303792;28;20106;-76
2023/12/31 02:50:56;;;;;;;2.43;1.93;;;;;;;8.01;100.00;99934.13;5305164;28;20040;-76
2023/12/31 02:53:27;;;;;;;2.40;1.47;;;;;;;7.99;100.00;99906.50;5304998;28;20020;-77
2023/12/31 02:56:00;;;;;;;2.33;1.50;;;;;;;7.96;100.00;99914.34;5307331;28;20012;-76
2023/12/31 02:58:31;;;;;;;2.90;1.70;;;;;;;7.99;100.00;99914.31;5311155;28;20097;-77
2023/12/31 03:01:03;;;;;;;1.77;1.20;;;;;;;7.96;100.00;99914.34;5310729;28;20044;-76
2023/12/31 03:03:34;;;;;;;3.57;1.50;;;;;;;7.97;100.00;99900.47;5310869;28;20041;-77
2023/12/31 03:06:05;;;;;;;2.40;1.50;;;;;;;7.95;100.00;99897.94;5310599;28;20037;-76
2023/12/31 03:08:37;;;;;;;1.77;1.33;;;;;;;7.93;100.00;99893.63;5309671;28;20024;-77
2023/12/31 03:11:08;;;;;;;1.80;1.30;;;;;;;7.98;100.00;99897.84;5310308;28;20029;-77
2023/12/31 03:13:40;;;;;;;1.63;1.50;;;;;;;7.99;100.00;99889.19;5309942;28;20044;-77
2023/12/31 03:16:11;;;;;;;2.07;1.40;;;;;;;7.94;100.00;99867.66;5310106;28;20086;-76
2023/12/31 03:18:42;;;;;;;3.00;1.40;;;;;;;7.91;100.00;99859.91;5292323;28;20020;-77
2023/12/31 03:21:15;;;;;;;3.97;1.87;;;;;;;7.91;100.00;99865.13;5310428;28;20029;-77
2023/12/31 03:23:46;;;;;;;;;;;;;;;7.88;100.00;99846.16;5310043;28;20036;-76
2023/12/31 03:26:18;;;;;;;3.28;1.60;;;;;;;7.85;100.00;99840.09;5310077;28;19963;-77
2023/12/31 03:28:49;;;;;;;1.90;1.30;;;;;;;7.81;100.00;99828.09;5309956;28;20060;-77
2023/12/31 03:31:21;;;;;;;1.30;1.20;;;;;;;7.79;100.00;99824.66;5309822;28;20031;-77
2023/12/31 03:33:52;;;;;;;1.63;1.40;;;;;;;7.75;100.00;99816.97;5302949;28;20040;-77
2023/12/31 03:36:24;;;;;;;2.30;1.40;;;;;;;7.73;100.00;99808.31;5302402;28;20024;-77
2023/12/31 03:38:55;;;;;;;2.83;1.20;;;;;;;7.75;100.00;99803.97;5306852;28;20036;-78
2023/12/31 03:41:27;;;;;;;3.27;1.40;;;;;;;7.76;100.00;99795.31;5306130;28;20057;-77
2023/12/31 03:44:00;;;;;;;2.50;1.50;;;;;;;7.74;100.00;99777.16;5307459;28;20031;-78
2023/12/31 03:46:31;;;;;;;;;;;;;;;7.82;100.00;99777.03;5307772;28;20096;-78
2023/12/31 03:49:02;;;;;;;2.00;1.30;;;;;;;7.77;100.00;99773.69;5307801;28;19903;-77
2023/12/31 03:51:34;;;;;;;3.37;1.63;;;;;;;7.81;100.00;99764.97;5308830;28;20028;-77
2023/12/31 03:54:07;;;;;;;5.50;1.60;;;;;;;7.84;100.00;99757.09;5308742;28;20116;-77
2023/12/31 03:56:38;;;;;;;2.88;1.60;;;;;;;7.82;100.00;99766.66;5308533;28;20024;-76
2023/12/31 03:59:10;;;;;;;4.43;1.50;;;;;;;7.84;100.00;99760.56;5308996;28;20023;-76
2023/12/31 04:01:45;;;;;;;3.43;1.40;;;;;;;7.90;100.00;99738.00;5309132;28;20044;-77
2023/12/31 04:04:17;;;;;;;2.95;1.90;;;;;;;7.86;100.00;99732.00;5309254;28;20039;-76
2023/12/31 04:06:48;;;;;;;3.17;1.60;;;;;;;7.87;100.00;99727.66;5307139;28;20118;-76
2023/12/31 04:09:19;;;;;;;3.07;1.70;;;;;;;7.83;100.00;99722.53;5304957;28;20057;-76
2023/12/31 04:11:50;;;;;;;2.13;1.50;;;;;;;7.84;100.00;99710.41;5297558;28;20031;-77
2023/12/31 04:14:22;;;;;;;2.77;1.70;;;;;;;7.80;100.00;99716.53;5308176;28;20032;-76
2023/12/31 04:16:53;;;;;;;2.23;1.67;;;;;;;7.75;100.00;99713.19;5308383;28;20060;-76
2023/12/31 04:19:25;;;;;;;2.87;1.53;;;;;;;7.73;100.00;99710.63;5307961;28;20044;-77
2023/12/31 04:21:56;;;;;;;4.20;1.97;;;;;;;7.71;100.00;99699.44;5308304;28;20074;-76
2023/12/31 04:24:28;;;;;;;2.30;1.60;;;;;;;7.73;100.00;99687.28;5307832;28;20056;-77
2023/12/31 04:26:59;;;;;;;4.77;1.77;;;;;;;7.67;100.00;99679.59;5308366;28;20016;-76
2023/12/31 04:29:30;;;;;;;4.20;1.93;;;;;;;7.65;100.00;99677.03;5308271;28;20032;-77
2023/12/31 04:32:02;;;;;;;3.23;1.57;;;;;;;7.64;100.00;99680.50;5304909;28;20063;-76
2023/12/31 04:34:33;;;;;;;3.73;1.90;;;;;;;7.70;100.00;99673.50;5294282;28;20032;-75
2023/12/31 04:37:04;;;;;;;2.87;2.13;;;;;;;7.71;100.00;99675.19;5294144;28;20035;-76
2023/12/31 04:39:36;;;;;;;2.77;1.90;;;;;;;7.67;100.00;99675.25;5305082;28;20029;-77
2023/12/31 04:42:07;;;;;;;3.17;2.10;;;;;;;7.67;100.00;99675.25;5306719;28;20076;-75
2023/12/31 04:44:40;;;;;;;3.23;1.73;;;;;;;7.69;100.00;99679.56;5302906;28;20036;-76
2023/12/31 04:47:12;;;;;;;2.67;1.80;;;;;;;7.75;100.00;99666.50;5297811;28;20063;-77
2023/12/31 04:49:43;;;;;;;4.23;2.80;;;;;;;7.80;100.00;99656.88;5292902;28;20039;-76
2023/12/31 04:52:15;;;;;;;3.60;2.10;;;;;;;7.81;100.00;99653.41;5290627;28;20034;-77
2023/12/31 04:54:46;;;;;;;3.83;2.00;;;;;;;7.80;100.00;99652.53;5290337;28;20483;-76
2023/12/31 04:57:17;;;;;;;2.37;1.77;;;;;;;7.87;100.00;99635.09;5288907;28;20036;-77
2023/12/31 04:59:49;;;;;;;3.13;1.53;;;;;;;7.90;100.00;99626.41;5289283;28;20480;-77
2023/12/31 05:02:22;;;;;;;3.10;1.73;;;;;;;7.95;100.00;99645.34;5287638;28;20437;-78
2023/12/31 05:04:54;;;;;;;3.85;1.65;;;;;;;8.03;100.00;99633.03;5288579;28;20417;-77
2023/12/31 05:07:25;;;;;;;2.70;1.90;;;;;;;8.05;100.00;99633.91;5288101;28;20059;-77
2023/12/31 05:09:57;;;;;;;4.40;1.80;;;;;;;8.01;100.00;99616.66;5287755;28;20028;-77
2023/12/31 05:12:28;;;;;;;3.40;2.00;;;;;;;8.04;100.00;99614.84;5287656;28;20460;-77
2023/12/31 05:14:59;;;;;;;3.13;2.13;;;;;;;8.02;100.00;99608.84;5287405;28;20036;-77
2023/12/31 05:17:31;;;;;;;2.93;1.83;;;;;;;8.03;100.00;99613.16;5287484;28;20136;-76
2023/12/31 05:20:02;;;;;;;3.70;2.83;;;;;;;8.08;100.00;99597.47;5286003;28;20040;-77
2023/12/31 05:22:33;;;;;;;5.37;2.07;;;;;;;8.10;100.00;99597.44;5284920;28;20032;-76
2023/12/31 05:25:05;;;;;;;2.77;1.70;;;;;;;8.08;100.00;99584.50;5286338;28;20063;-76
2023/12/31 05:27:37;;;;;;;2.83;2.07;;;;;;;8.13;100.00;99580.06;5286290;28;20032;-77
2023/12/31 05:30:10;;;;;;;1.97;1.70;;;;;;;8.12;100.00;99587.91;5286108;28;20337;-76
2023/12/31 05:32:41;;;;;;;3.70;1.95;;;;;;;8.17;100.00;99578.25;5286414;28;20040;-75
2023/12/31 05:35:13;;;;;;;2.93;2.00;;;;;;;8.14;100.00;99573.13;5286308;28;20357;-76
2023/12/31 05:37:44;;;;;;;1.97;1.63;;;;;;;8.06;100.00;99557.72;5286366;28;20412;-75
2023/12/31 05:40:16;;;;;;;2.37;1.90;;;;;;;8.10;100.00;99553.31;5284686;28;20028;-76
2023/12/31 05:42:47;;;;;;;4.80;2.03;;;;;;;8.04;100.00;99549.97;5284930;28;20097;-77
2023/12/31 05:45:18;;;;;;;3.77;2.00;;;;;;;8.01;100.00;99559.56;5284808;28;20467;-77
2023/12/31 05:47:50;;;;;;;4.97;2.27;;;;;;;8.00;100.00;99557.84;5282657;28;20325;-77
2023/12/31 05:50:21;;;;;;;3.30;2.33;;;;;;;8.01;100.00;99539.66;5283802;28;20079;-77
2023/12/31 05:52:53;;;;;;;2.90;1.70;;;;;;;8.06;100.00;99536.97;5283531;28;20115;-77
2023/12/31 05:55:24;;;;;;;2.90;2.00;;;;;;;7.97;100.00;99540.63;5283962;28;20059;-76
2023/12/31 05:57:56;;;;;;;3.30;1.90;;;;;;;8.02;100.00;99530.16;5283097;28;20024;-75
2023/12/31 06:00:27;;;;;;;2.90;2.10;;;;;;;8.01;100.00;99547.44;5283254;28;20051;-75
2023/12/31 06:02:58;;;;;;;5.13;1.93;;;;;;;8.00;100.00;99534.50;5283181;28;20036;-75
2023/12/31 06:05:30;;;;;;;3.00;2.03;;;;;;;8.02;100.00;99524.97;5283682;28;20035;-77
2023/12/31 06:08:01;;;;;;;3.03;1.90;;;;;;;7.98;100.00;99524.16;5283652;28;20060;-77
2023/12/31 06:10:33;;;;;;;2.57;1.90;;;;;;;7.98;100.00;99526.75;5283354;28;20036;-77
2023/12/31 06:13:04;;;;;;;3.67;1.80;;;;;;;7.96;100.00;99512.13;5282740;28;20094;-76
2023/12/31 06:15:35;;;;;;;4.93;2.47;;;;;;;7.92;100.00;99511.34;5283097;28;20493;-76
2023/12/31 06:18:07;;;;;;;1.83;1.60;;;;;;;7.84;100.00;99511.50;5283085;28;20024;-75
2023/12/31 06:20:39;;;;;;;4.50;2.17;;;;;;;7.82;100.00;99502.91;5282774;28;20036;-76
2023/12/31 06:23:10;;;;;;;2.88;2.10;;;;;;;7.80;100.00;99507.25;5283452;28;20036;-75
2023/12/31 06:25:41;;;;;;;2.37;1.93;;;;;;;7.83;100.00;99508.94;5283685;28;20376;-76
2023/12/31 06:28:13;;;;;;;2.90;2.10;;;;;;;7.84;100.00;99490.75;5283599;28;20111;-75
2023/12/31 06:30:44;;;;;;;2.50;1.90;;;;;;;7.86;100.00;99485.53;5281838;28;20507;-76
2023/12/31 06:33:15;;;;;;;2.47;1.67;;;;;;;7.92;100.00;99480.19;5283165;28;20094;-76
2023/12/31 06:35:47;;;;;;;2.43;1.83;;;;;;;8.01;100.00;99476.53;5283355;28;20055;-75
2023/12/31 06:38:18;;;;;;;2.43;1.87;;;;;;;8.01;100.00;99474.78;5283151;28;20032;-76
2023/12/31 06:40:50;;;;;;;2.27;1.80;;;;;;;8.07;100.00;99450.44;5282648;28;20057;-75
2023/12/31 06:43:21;;;;;;;3.00;1.90;;;;;;;8.05;100.00;99452.22;5282581;28;20070;-75
2023/12/31 06:45:53;;;;;;;3.73;2.20;;;;;;;8.03;100.00;99449.66;5282403;28;20036;-75
2023/12/31 06:48:24;;;;;;;2.23;2.03;;;;;;;8.17;100.00;99453.66;5281497;28;20048;-76
2023/12/31 06:50:55;;;;;;;2.77;2.00;;;;;;;8.22;100.00;99436.22;5282361;28;20032;-77
2023/12/31 06:53:27;;;;;;;3.13;2.10;;;;;;;8.29;100.00;99429.13;5283332;28;20041;-77
2023/12/31 06:56:05;;;;;;;2.53;2.10;;;;;;;8.35;100.00;99440.22;5282666;28;20085;-77
2023/12/31 06:58:37;;;;;;;2.25;1.88;;;;;;;8.36;100.00;99425.50;5281242;28;20048;-76
2023/12/31 07:01:09;;;;;;;1.98;1.65;;;;;;;8.52;100.00;99437.22;5282921;28;20029;-77
2023/12/31 07:03:40;;;;;;;3.07;2.00;;;;;;;8.62;100.00;99429.19;5282539;28;20051;-76
2023/12/31 07:06:12;;;;;;;2.70;1.87;;;;;;;8.70;100.00;99424.66;5281088;28;20032;-76
2023/12/31 07:08:43;;;;;;;2.30;1.93;;;;;;;8.78;99.68;99419.25;5282341;28;20040;-77
2023/12/31 07:11:16;;;;;;;6.07;1.77;;;;;;;8.80;99.19;99422.66;5282132;28;20039;-76
2023/12/31 07:13:48;;;;;;;6.13;1.70;;;;;;;8.87;98.79;99417.25;5282917;28;20036;-76
2023/12/31 07:16:19;;;;;;;2.60;1.87;;;;;;;8.81;98.99;99413.97;5282124;28;20115;-76
2023/12/31 07:18:50;;;;;;;2.97;2.17;;;;;;;8.82;99.04;99394.88;5281971;28;20029;-75
2023/12/31 07:21:23;;;;;;;1.73;1.63;;;;;;;8.81;99.11;99388.84;5282304;28;20040;-76
2023/12/31 07:23:54;;;;;;;;;;;;;;;8.78;99.31;99388.91;5282529;28;20535;-76
2023/12/31 07:26:27;;;;;;;3.17;1.77;;;;;;;8.85;99.05;99374.00;5282274;28;20046;-76
2023/12/31 07:28:58;;;;;;;;;;;;;;;8.87;98.89;99383.47;5282947;28;20510;-76
2023/12/31 07:31:30;;;;;;;3.00;2.00;;;;;;;8.94;98.41;99376.34;5282099;28;19920;-76
2023/12/31 07:34:03;;;;;;;2.60;1.80;;;;;;;8.98;98.21;99384.91;5282383;28;20487;-77
2023/12/31 07:36:35;;;;;;;3.05;1.75;;;;;;;9.03;97.71;99375.22;5282381;28;20456;-75
2023/12/31 07:39:06;;;;;;;2.00;1.80;;;;;;;9.09;97.26;99370.69;5280489;28;20036;-76
2023/12/31 07:41:38;;;;;;;3.77;1.90;;;;;;;9.14;97.23;99362.75;5282283;28;20126;-76
2023/12/31 07:44:09;;;;;;;2.63;2.10;;;;;;;9.18;96.69;99361.78;5285023;28;20488;-76
2023/12/31 07:46:40;;;;;;;4.07;2.00;;;;;;;9.24;96.08;99361.59;5284593;28;20036;-76
2023/12/31 07:49:12;;;;;;;3.00;1.87;;;;;;;9.30;95.53;99348.38;5284026;28;20079;-76
2023/12/31 07:51:43;;;;;;;2.23;1.70;;;;;;;9.38;94.98;99352.50;5284456;28;20039;-76
2023/12/31 07:54:14;;;;;;;4.50;1.90;;;;;;;9.40;95.09;99355.91;5285652;28;20474;-76
2023/12/31 07:56:46;;;;;;;2.93;2.00;;;;;;;9.43;95.25;99359.25;5285392;28;20165;-76
2023/12/31 07:59:18;;;;;;;2.37;1.90;;;;;;;9.45;96.08;99352.28;5285475;28;20043;-76
2023/12/31 08:01:49;;;;;;;1.95;1.73;;;;;;;9.32;97.45;99348.34;5285225;28;20041;-76
2023/12/31 08:04:22;;;;;;;2.10;1.90;;;;;;;9.24;98.43;99337.31;5285340;28;20033;-76
2023/12/31 08:06:53;;;;;;;2.78;1.90;;;;;;;9.20;98.81;99340.94;5285737;28;20035;-76
2023/12/31 08:09:24;;;;;;;2.57;2.07;;;;;;;9.21;99.13;99338.28;5285629;28;20029;-76
2023/12/31 08:11:56;;;;;;;3.07;2.03;;;;;;;9.31;97.78;99357.91;5283875;28;20468;-75
2023/12/31 08:14:28;;;;;;;3.13;2.03;;;;;;;9.29;98.29;99333.69;5285787;28;20032;-75
2023/12/31 08:17:00;;;;;;;3.33;2.20;;;;;;;9.33;97.81;99339.66;5285087;28;20317;-75
2023/12/31 08:19:32;;;;;;;4.28;2.03;;;;;;;9.25;99.91;99339.03;5285347;28;20036;-76
2023/12/31 08:22:03;;;;;;;3.07;2.07;;;;;;;8.99;100.00;99348.47;5283799;28;20130;-76
2023/12/31 08:24:35;;;;;;;3.00;2.20;;;;;;;8.79;100.00;99353.38;5285103;28;20039;-76
2023/12/31 08:27:06;;;;;;;3.60;2.10;;;;;;;8.79;100.00;99335.19;5284406;28;20020;-76
2023/12/31 08:29:41;;;;;;;2.60;2.00;;;;;;;8.68;100.00;99336.38;5284633;28;20028;-76
2023/12/31 08:32:12;;;;;;;3.75;1.88;;;;;;;8.64;100.00;99328.69;5284488;28;20040;-76
2023/12/31 08:34:45;;;;;;;3.37;2.30;;;;;;;8.53;100.00;99345.44;5283597;28;20033;-74
2023/12/31 08:37:16;;;;;;;2.03;1.80;;;;;;;8.40;100.00;99331.03;5284872;28;20109;-75
2023/12/31 08:39:47;;;;;;;4.77;2.63;;;;;;;8.37;100.00;99332.00;5284548;28;20082;-76
2023/12/31 08:42:20;;;;;;;4.63;2.20;;;;;;;8.35;100.00;99325.97;5284262;28;20101;-75
2023/12/31 08:44:51;;;;;;;3.37;2.03;;;;;;;8.25;100.00;99340.09;5283815;28;20379;-76
2023/12/31 08:47:23;;;;;;;2.87;2.23;;;;;;;8.16;100.00;99337.72;5284516;28;20025;-75
2023/12/31 08:49:54;;;;;;;2.57;2.10;;;;;;;8.09;100.00;99337.03;5284619;28;20119;-75
2023/12/31 08:52:25;;;;;;;4.73;2.17;;;;;;;8.06;100.00;99331.09;5266619;28;20502;-75
2023/12/31 08:54:57;;;;;;;2.53;2.10;;;;;;;8.01;100.00;99331.19;5283990;28;20028;-75
2023/12/31 08:57:28;;;;;;;4.37;2.03;;;;;;;7.98;100.00;99332.13;5283830;28;20032;-74
2023/12/31 09:00:00;;;;;;;2.27;2.07;;;;;;;7.90;100.00;99323.69;5266143;28;20388;-75
2023/12/31 09:02:31;;;;;;;2.37;1.83;;;;;;;7.91;100.00;99332.34;5284370;28;20386;-76
2023/12/31 09:05:04;;;;;;;4.10;2.50;;;;;;;7.81;100.00;99342.09;5283038;28;20029;-76
2023/12/31 09:07:35;;;;;;;3.67;2.55;;;;;;;7.82;100.00;99349.84;5283020;28;20032;-76
2023/12/31 09:10:07;;;;;;;2.90;2.10;;;;;;;7.82;100.00;99336.88;5284030;28;20113;-76
2023/12/31 09:12:39;;;;;;;2.33;2.00;;;;;;;7.80;100.00;99348.16;5282919;28;20468;-76
2023/12/31 09:15:10;;;;;;;3.77;2.07;;;;;;;7.75;100.00;99345.69;5283623;28;20109;-76
2023/12/31 09:17:42;;;;;;;3.37;2.37;;;;;;;7.72;100.00;99363.06;5282567;28;20116;-76
2023/12/31 09:20:13;;;;;;;2.40;2.20;;;;;;;7.72;100.00;99356.13;5283419;28;20033;-76
2023/12/31 09:22:45;;;;;;;1.87;1.70;;;;;;;7.72;100.00;99355.28;5284248;28;20119;-76
2023/12/31 09:25:16;;;;;;;2.07;1.70;;;;;;;7.67;100.00;99358.81;5283537;28;20063;-76
2023/12/31 09:27:48;;;;;;;3.13;1.73;;;;;;;7.72;100.00;99355.28;5283208;28;20038;-75
2023/12/31 09:30:20;;;;;;;1.83;1.50;;;;;;;7.67;100.00;99364.00;5283229;28;20032;-76
2023/12/31 09:32:51;;;;;;;1.57;1.40;;;;;;;7.72;100.00;99368.25;5282851;28;20455;-76
2023/12/31 09:35:22;;;;;;;2.23;1.53;;;;;;;7.73;100.00;99368.22;5282100;28;20335;-76
2023/12/31 09:37:54;;;;;;;2.97;1.27;;;;;;;7.72;100.00;99379.47;5283057;28;20067;-76
2023/12/31 09:40:25;;;;;;;2.03;1.30;;;;;;;7.80;100.00;99380.13;5283352;28;20069;-76
2023/12/31 09:42:58;;;;;;;2.83;1.43;;;;;;;7.83;100.00;99385.25;5283666;28;20048;-75
2023/12/31 09:45:30;;;;;;;1.52;1.17;;;;;;;7.95;100.00;99378.94;5287779;28;20033;-75
2023/12/31 09:48:02;;;;;;;5.85;1.60;;;;;;;8.07;100.00;99392.50;5281874;28;20036;-76
2023/12/31 09:50:34;;;;;;;3.53;2.22;;;;;;;8.18;100.00;99390.47;5281752;28;20533;-76
2023/12/31 09:53:06;;;;;;;2.90;1.70;;;;;;;8.23;100.00;99383.44;5283466;28;20056;-76
2023/12/31 09:55:38;;;;;;;1.67;1.52;;;;;;;8.33;100.00;99408.25;5282947;28;20029;-76
2023/12/31 09:58:13;;;;;;;1.17;1.05;;;;;;;8.51;100.00;99411.28;5283124;28;20428;-74
2023/12/31 10:00:44;;;;;;;2.20;1.30;;;;;;;8.46;100.00;99411.41;5283304;28;20078;-75
2023/12/31 10:03:17;;;;;;;1.47;1.10;;;;;;;8.52;100.00;99411.25;5282956;28;20036;-75
2023/12/31 10:05:51;;;;;;;3.83;1.30;;;;;;;8.59;100.00;99409.34;5282839;28;20111;-75
2023/12/31 10:08:23;;;;;;;4.05;1.30;;;;;;;8.62;100.00;99406.66;5284902;28;20025;-75
2023/12/31 10:10:56;;;;;;;2.25;1.17;;;;;;;8.63;100.00;99394.50;5286575;28;20036;-75
2023/12/31 10:13:28;;;;;;;;;;;;;;;8.69;100.00;99395.19;5284023;28;20040;-75
2023/12/31 10:16:10;;;;;;;3.72;1.58;;;;;;;8.79;100.00;99410.53;5284151;28;20018;-75
2023/12/31 10:18:41;;;;;;;3.17;1.30;;;;;;;8.82;100.00;99407.84;5283716;28;20469;-75
2023/12/31 10:21:13;;;;;;;4.17;1.23;;;;;;;8.61;100.00;99417.09;5282712;28;20032;-76
2023/12/31 10:23:44;;;;;;;2.50;1.40;;;;;;;8.38;100.00;99426.31;5282933;28;20047;-75
2023/12/31 10:26:16;;;;;;;4.97;1.43;;;;;;;8.11;100.00;99394.94;5282684;28;20033;-76
2023/12/31 10:28:48;;;;;;;3.10;1.43;;;;;;;7.89;100.00;99399.84;5282617;28;20025;-75
2023/12/31 10:31:19;;;;;;;6.20;2.05;;;;;;;7.81;100.00;99397.41;5284078;28;20028;-75
2023/12/31 10:33:51;;;;;;;4.53;1.40;;;;;;;7.68;100.00;99396.00;5283082;28;20177;-75
2023/12/31 10:36:23;;;;;;;3.87;1.33;;;;;;;7.57;100.00;99398.00;5280532;28;20024;-75
2023/12/31 10:38:55;;;;;;;6.78;1.80;;;;;;;7.49;100.00;99400.75;5282952;28;20039;-74
2023/12/31 10:41:27;;;;;;;10.33;2.30;;;;;;;7.43;100.00;99412.09;5282323;28;20053;-74
2023/12/31 10:44:03;;;;;;;2.47;1.80;;;;;;;7.33;100.00;99405.44;5282519;28;20060;-73
2023/12/31 10:46:36;;;;;;;3.95;1.90;;;;;;;7.35;100.00;99402.81;5282149;28;20064;-74
2023/12/31 10:49:11;;;;;;;4.28;1.80;;;;;;;7.27;100.00;99408.97;5282027;28;20024;-75
2023/12/31 10:51:44;;;;;;;2.75;1.42;;;;;;;7.29;100.00;99401.19;5282048;28;20041;-75
2023/12/31 10:54:26;;;;;;;2.72;1.27;;;;;;;7.29;100.00;99408.94;5281852;28;20044;-73
2023/12/31 10:56:58;;;;;;;4.65;1.25;;;;;;;7.32;100.00;99403.72;5282739;28;20512;-75
2023/12/31 10:59:31;;;;;;;6.60;2.53;;;;;;;7.33;100.00;99396.81;5282414;28;20115;-75
2023/12/31 11:02:05;;;;;;;4.07;1.50;;;;;;;7.40;100.00;99394.03;5280016;28;20024;-75
2023/12/31 11:04:37;;;;;;;5.05;2.22;;;;;;;7.66;100.00;99387.38;5282290;28;20035;-75
2023/12/31 11:07:09;;;;;;;2.05;1.08;;;;;;;7.89;100.00;99406.75;5281860;28;20103;-75
2023/12/31 11:09:42;;;;;;;1.77;1.03;;;;;;;8.17;100.00;99409.53;5282271;28;20375;-76
2023/12/31 11:12:18;;;;;;;3.50;2.10;;;;;;;8.25;100.00;99412.78;5281768;28;20020;-75
2023/12/31 11:15:15;;;;;;;3.55;1.73;;;;;;;8.24;100.00;99407.63;5281754;28;20032;-75
2023/12/31 11:18:08;;;;;;;3.83;1.60;;;;;;;8.12;100.00;99417.44;5283447;28;20359;-74
2023/12/31 11:20:49;;;;;;;5.28;1.60;;;;;;;8.37;100.00;99415.06;5285468;28;20372;-75
2023/12/31 11:23:29;;;;;;;3.17;1.38;;;;;;;8.98;100.00;99414.31;5286009;28;20020;-75
2023/12/31 11:26:02;;;;;;;3.28;1.40;;;;;;;9.22;100.00;99412.78;5285792;28;20063;-75
2023/12/31 11:28:37;;;;;;;1.67;1.20;;;;;;;9.70;100.00;99406.13;5285690;28;20024;-76
2023/12/31 11:31:09;;;;;;;3.53;1.20;;;;;;;9.47;100.00;99428.50;5285600;28;20425;-75
2023/12/31 11:33:40;;;;;;;3.55;1.80;;;;;;;9.27;100.00;99430.84;5285559;28;20097;-76
2023/12/31 11:36:14;;;;;;;4.33;1.50;;;;;;;9.23;100.00;99418.84;5284776;28;20108;-76
2023/12/31 11:38:51;;;;;;;5.22;1.40;;;;;;;8.80;100.00;99446.88;5285374;28;20032;-74
2023/12/31 11:41:24;;;;;;;3.95;1.52;;;;;;;8.29;100.00;99422.22;5285326;28;20135;-75
2023/12/31 11:43:56;;;;;;;3.78;1.55;;;;;;;8.10;100.00;99424.41;5285190;28;20406;-76
2023/12/31 11:46:38;;;;;;;2.63;1.33;;;;;;;8.08;100.00;99417.53;5285677;28;20124;-76
2023/12/31 11:49:10;;;;;;;2.95;1.30;;;;;;;8.03;100.00;99425.44;5283964;28;20029;-75
2023/12/31 11:52:11;;;;;;;4.10;3.27;;;;;;;8.15;100.00;99437.28;5285057;28;20020;-75
2023/12/31 11:54:44;;;;;;;1.85;0.85;;;;;;;8.36;100.00;99420.31;5276506;28;20044;-76
2023/12/31 11:57:17;;;;;;;2.08;1.20;;;;;;;8.92;100.00;99430.97;5285262;28;20028;-75